sensor_id;sensor_type;location;lat;lon;timestamp;pressure;altitude;pressure_sealevel;temperature
49557;BMP280;35462;45.048;7.666;2023-08-12T00:14:46;99514.50;;;28.67
49557;BMP280;35462;45.048;7.666;2023-08-12T00:30:06;99517.97;;;28.68
49557;BMP280;35462;45.048;7.666;2023-08-12T00:45:27;99515.56;;;28.59
49557;BMP280;35462;45.048;7.666;2023-08-12T01:00:47;99519.59;;;28.52
49557;BMP280;35462;45.048;7.666;2023-08-12T01:16:08;99496.13;;;28.44
49557;BMP280;35462;45.048;7.666;2023-08-12T01:32:08;99507.63;;;28.37
49557;BMP280;35462;45.048;7.666;2023-08-12T01:47:29;99499.28;;;28.30
49557;BMP280;35462;45.048;7.666;2023-08-12T02:02:49;99486.66;;;28.27
49557;BMP280;35462;45.048;7.666;2023-08-12T02:18:08;99485.25;;;28.20
49557;BMP280;35462;45.048;7.666;2023-08-12T02:33:28;99489.94;;;28.20
49557;BMP280;35462;45.048;7.666;2023-08-12T02:48:47;99486.94;;;28.23
49557;BMP280;35462;45.048;7.666;2023-08-12T03:04:07;99485.25;;;28.20
49557;BMP280;35462;45.048;7.666;2023-08-12T03:19:27;99484.53;;;28.14
49557;BMP280;35462;45.048;7.666;2023-08-12T03:34:48;99470.97;;;28.09
49557;BMP280;35462;45.048;7.666;2023-08-12T03:50:08;99471.09;;;27.92
49557;BMP280;35462;45.048;7.666;2023-08-12T04:05:28;99465.41;;;27.90
49557;BMP280;35462;45.048;7.666;2023-08-12T04:20:53;99470.88;;;27.90
49557;BMP280;35462;45.048;7.666;2023-08-12T04:36:12;99465.47;;;27.85
49557;BMP280;35462;45.048;7.666;2023-08-12T04:51:33;99456.66;;;27.74
49557;BMP280;35462;45.048;7.666;2023-08-12T05:06:53;99472.63;;;27.59
49557;BMP280;35462;45.048;7.666;2023-08-12T05:22:13;99468.97;;;27.45
49557;BMP280;35462;45.048;7.666;2023-08-12T05:37:33;99478.38;;;27.44
49557;BMP280;35462;45.048;7.666;2023-08-12T05:52:52;99479.72;;;27.67
49557;BMP280;35462;45.048;7.666;2023-08-12T06:08:13;99487.09;;;27.72
49557;BMP280;35462;45.048;7.666;2023-08-12T06:23:32;99488.97;;;27.59
49557;BMP280;35462;45.048;7.666;2023-08-12T06:38:52;99483.81;;;27.84
49557;BMP280;35462;45.048;7.666;2023-08-12T06:54:12;99491.31;;;28.02
49557;BMP280;35462;45.048;7.666;2023-08-12T07:09:31;99485.94;;;27.97
49557;BMP280;35462;45.048;7.666;2023-08-12T07:24:51;99488.66;;;28.50
49557;BMP280;35462;45.048;7.666;2023-08-12T07:40:12;99471.47;;;29.78
49557;BMP280;35462;45.048;7.666;2023-08-12T07:55:32;99463.97;;;30.61
49557;BMP280;35462;45.048;7.666;2023-08-12T08:10:51;99462.03;;;30.82
49557;BMP280;35462;45.048;7.666;2023-08-12T08:26:10;99462.31;;;31.11
49557;BMP280;35462;45.048;7.666;2023-08-12T08:41:31;99447.19;;;31.31
49557;BMP280;35462;45.048;7.666;2023-08-12T08:56:51;99437.06;;;31.87
49557;BMP280;35462;45.048;7.666;2023-08-12T09:12:13;99436.88;;;32.20
49557;BMP280;35462;45.048;7.666;2023-08-12T09:27:35;99423.38;;;32.29
49557;BMP280;35462;45.048;7.666;2023-08-12T09:42:55;99424.94;;;32.52
49557;BMP280;35462;45.048;7.666;2023-08-12T09:58:17;99424.13;;;32.30
49557;BMP280;35462;45.048;7.666;2023-08-12T10:13:37;99410.66;;;32.47
49557;BMP280;35462;45.048;7.666;2023-08-12T10:28:57;99388.38;;;32.65
49557;BMP280;35462;45.048;7.666;2023-08-12T10:44:16;99377.78;;;32.69
49557;BMP280;35462;45.048;7.666;2023-08-12T11:15:05;99347.03;;;32.70
49557;BMP280;35462;45.048;7.666;2023-08-12T11:30:25;99323.41;;;32.52
49557;BMP280;35462;45.048;7.666;2023-08-12T11:45:45;99297.63;;;32.78
49557;BMP280;35462;45.048;7.666;2023-08-12T12:01:04;99298.34;;;32.93
49557;BMP280;35462;45.048;7.666;2023-08-12T12:16:24;99278.25;;;32.61
49557;BMP280;35462;45.048;7.666;2023-08-12T12:31:44;99269.75;;;32.29
49557;BMP280;35462;45.048;7.666;2023-08-12T12:47:04;99251.13;;;32.28
49557;BMP280;35462;45.048;7.666;2023-08-12T13:02:23;99246.75;;;32.47
49557;BMP280;35462;45.048;7.666;2023-08-12T13:17:43;99223.53;;;32.48
49557;BMP280;35462;45.048;7.666;2023-08-12T13:33:03;99198.66;;;32.61
49557;BMP280;35462;45.048;7.666;2023-08-12T13:48:23;99175.94;;;32.68
49557;BMP280;35462;45.048;7.666;2023-08-12T14:03:43;99159.28;;;32.73
49557;BMP280;35462;45.048;7.666;2023-08-12T14:19:02;99144.09;;;32.65
49557;BMP280;35462;45.048;7.666;2023-08-12T14:34:22;99138.06;;;32.59
49557;BMP280;35462;45.048;7.666;2023-08-12T14:49:41;99109.94;;;32.51
49557;BMP280;35462;45.048;7.666;2023-08-12T15:05:01;99093.84;;;32.40
49557;BMP280;35462;45.048;7.666;2023-08-12T15:20:20;99099.69;;;32.29
49557;BMP280;35462;45.048;7.666;2023-08-12T15:35:40;99093.09;;;32.25
49557;BMP280;35462;45.048;7.666;2023-08-12T15:51:00;99090.53;;;32.19
49557;BMP280;35462;45.048;7.666;2023-08-12T16:06:19;99067.72;;;32.17
49557;BMP280;35462;45.048;7.666;2023-08-12T16:21:39;99056.59;;;32.07
49557;BMP280;35462;45.048;7.666;2023-08-12T16:36:59;99041.56;;;32.08
49557;BMP280;35462;45.048;7.666;2023-08-12T16:52:18;99028.94;;;32.05
49557;BMP280;35462;45.048;7.666;2023-08-12T17:07:38;99024.38;;;32.00
49557;BMP280;35462;45.048;7.666;2023-08-12T17:22:57;99044.88;;;31.92
49557;BMP280;35462;45.048;7.666;2023-08-12T17:38:17;99067.50;;;31.85
49557;BMP280;35462;45.048;7.666;2023-08-12T17:53:37;99087.97;;;31.77
49557;BMP280;35462;45.048;7.666;2023-08-12T18:08:57;99100.03;;;31.66
49557;BMP280;35462;45.048;7.666;2023-08-12T18:24:16;99111.31;;;31.55
49557;BMP280;35462;45.048;7.666;2023-08-12T18:39:35;99127.03;;;31.48
49557;BMP280;35462;45.048;7.666;2023-08-12T18:54:55;99160.41;;;31.46
49557;BMP280;35462;45.048;7.666;2023-08-12T19:10:14;99178.63;;;31.36
49557;BMP280;35462;45.048;7.666;2023-08-12T19:25:34;99197.25;;;31.02
49557;BMP280;35462;45.048;7.666;2023-08-12T19:40:53;99197.03;;;30.73
49557;BMP280;35462;45.048;7.666;2023-08-12T19:56:13;99201.41;;;30.48
49557;BMP280;35462;45.048;7.666;2023-08-12T20:11:32;99222.06;;;30.36
49557;BMP280;35462;45.048;7.666;2023-08-12T20:26:52;99237.50;;;30.34
49557;BMP280;35462;45.048;7.666;2023-08-12T20:42:11;99243.09;;;30.28
49557;BMP280;35462;45.048;7.666;2023-08-12T20:57:31;99238.09;;;30.19
49557;BMP280;35462;45.048;7.666;2023-08-12T21:12:50;99239.81;;;30.09
49557;BMP280;35462;45.048;7.666;2023-08-12T21:28:10;99236.06;;;29.99
49557;BMP280;35462;45.048;7.666;2023-08-12T21:43:29;99241.22;;;29.90
49557;BMP280;35462;45.048;7.666;2023-08-12T21:58:49;99243.88;;;29.83
49557;BMP280;35462;45.048;7.666;2023-08-12T22:14:08;99241.97;;;29.78
49557;BMP280;35462;45.048;7.666;2023-08-12T22:29:28;99249.88;;;29.68
49557;BMP280;35462;45.048;7.666;2023-08-12T22:44:47;99257.97;;;29.61
49557;BMP280;35462;45.048;7.666;2023-08-12T23:00:07;99247.97;;;29.50
49557;BMP280;35462;45.048;7.666;2023-08-12T23:15:27;99240.94;;;29.42
49557;BMP280;35462;45.048;7.666;2023-08-12T23:30:46;99241.16;;;29.31
49557;BMP280;35462;45.048;7.666;2023-08-12T23:46:06;99237.16;;;29.19
